Burtonfield Tanna, Vanuatu
Current Conditions -  °F | °C
As of 8:00 AM on Friday 19 Dec 2014 (Local Time) from NVVV Reporting Station
Scattered Clouds Scattered Clouds  
Wind Chill: 84°   Ceiling: Unl
Heat Index: 94°   Visibility: 6mi
Dew Point: 77°   Wind: 3mph
Humidity: 79%   Direction: NA
Pressure: 29.85"   Gusts: NA
Location:  19.53°S, 169.25°E
Report Text: NVVV 182100Z VRB03KT 9999 SCT025 29/25 Q1011 RMK NIL
Loading
Personal Weather Stations






























Interactive Weather Map New forecast layout! Learn more

10-Day Weather Forecast

Advertisements
Track Severe Weather on mobile